sensor_id;sensor_type;location;lat;lon;timestamp;pressure;altitude;pressure_sealevel;temperature;humidity
81005;BME280;70472;47.592;17.640;2023-06-22T00:00:09;100115.16;;;20.80;76.57
81005;BME280;70472;47.592;17.640;2023-06-22T00:00:43;100113.63;;;20.84;76.37
81005;BME280;70472;47.592;17.640;2023-06-22T00:01:15;100110.31;;;20.82;76.42
81005;BME280;70472;47.592;17.640;2023-06-22T00:01:47;100111.16;;;20.83;75.77
81005;BME280;70472;47.592;17.640;2023-06-22T00:02:20;100105.56;;;20.77;76.44
81005;BME280;70472;47.592;17.640;2023-06-22T00:02:52;100108.28;;;20.77;76.68
81005;BME280;70472;47.592;17.640;2023-06-22T00:03:25;100101.75;;;20.78;75.46
81005;BME280;70472;47.592;17.640;2023-06-22T00:03:58;100103.19;;;20.81;75.77
81005;BME280;70472;47.592;17.640;2023-06-22T00:04:30;100107.34;;;20.84;76.24
81005;BME280;70472;47.592;17.640;2023-06-22T00:05:02;100105.31;;;20.79;76.58
81005;BME280;70472;47.592;17.640;2023-06-22T00:05:35;100102.84;;;20.77;77.48
81005;BME280;70472;47.592;17.640;2023-06-22T00:06:07;100101.19;;;20.76;77.32
81005;BME280;70472;47.592;17.640;2023-06-22T00:06:40;100104.97;;;20.75;76.81
81005;BME280;70472;47.592;17.640;2023-06-22T00:07:12;100110.78;;;20.79;77.40
81005;BME280;70472;47.592;17.640;2023-06-22T00:07:44;100106.75;;;20.82;76.44
81005;BME280;70472;47.592;17.640;2023-06-22T00:08:18;100100.81;;;20.85;76.02
81005;BME280;70472;47.592;17.640;2023-06-22T00:08:51;100104.38;;;20.85;75.95
81005;BME280;70472;47.592;17.640;2023-06-22T00:09:23;100107.34;;;20.84;77.07
81005;BME280;70472;47.592;17.640;2023-06-22T00:09:55;100101.75;;;20.78;76.79
81005;BME280;70472;47.592;17.640;2023-06-22T00:10:28;100102.84;;;20.77;77.10
81005;BME280;70472;47.592;17.640;2023-06-22T00:11:00;100095.00;;;20.81;76.19
81005;BME280;70472;47.592;17.640;2023-06-22T00:11:33;100091.94;;;20.77;77.32
81005;BME280;70472;47.592;17.640;2023-06-22T00:12:06;100089.75;;;20.68;76.46
81005;BME280;70472;47.592;17.640;2023-06-22T00:12:39;100094.38;;;20.67;77.05
81005;BME280;70472;47.592;17.640;2023-06-22T00:13:12;100095.81;;;20.70;77.69
81005;BME280;70472;47.592;17.640;2023-06-22T00:13:45;100091.78;;;20.72;76.90
81005;BME280;70472;47.592;17.640;2023-06-22T00:14:17;100096.56;;;20.77;76.28
81005;BME280;70472;47.592;17.640;2023-06-22T00:14:50;100091.34;;;20.75;76.55
81005;BME280;70472;47.592;17.640;2023-06-22T00:15:22;100094.06;;;20.75;76.03
81005;BME280;70472;47.592;17.640;2023-06-22T00:15:55;100090.47;;;20.75;76.23
81005;BME280;70472;47.592;17.640;2023-06-22T00:16:27;100093.59;;;20.78;76.90
81005;BME280;70472;47.592;17.640;2023-06-22T00:16:59;100097.72;;;20.81;76.83
81005;BME280;70472;47.592;17.640;2023-06-22T00:17:32;100097.72;;;20.81;76.82
81005;BME280;70472;47.592;17.640;2023-06-22T00:18:06;100086.47;;;20.77;76.94
81005;BME280;70472;47.592;17.640;2023-06-22T00:18:38;100095.25;;;20.79;77.63
81005;BME280;70472;47.592;17.640;2023-06-22T00:19:11;100090.28;;;20.76;77.43
81005;BME280;70472;47.592;17.640;2023-06-22T00:19:43;100087.03;;;20.68;77.29
81005;BME280;70472;47.592;17.640;2023-06-22T00:20:16;100085.00;;;20.63;77.39
81005;BME280;70472;47.592;17.640;2023-06-22T00:20:48;100087.13;;;20.61;78.29
81005;BME280;70472;47.592;17.640;2023-06-22T00:21:20;100090.00;;;20.66;76.81
81005;BME280;70472;47.592;17.640;2023-06-22T00:21:53;100084.56;;;20.66;76.98
81005;BME280;70472;47.592;17.640;2023-06-22T00:22:25;100078.63;;;20.69;75.95
81005;BME280;70472;47.592;17.640;2023-06-22T00:22:59;100071.50;;;20.68;76.84
81005;BME280;70472;47.592;17.640;2023-06-22T00:23:32;100075.78;;;20.64;77.47
81005;BME280;70472;47.592;17.640;2023-06-22T00:24:05;100071.16;;;20.65;77.20
81005;BME280;70472;47.592;17.640;2023-06-22T00:24:37;100072.00;;;20.65;76.92
81005;BME280;70472;47.592;17.640;2023-06-22T00:25:11;100069.03;;;20.67;77.54
81005;BME280;70472;47.592;17.640;2023-06-22T00:25:43;100074.03;;;20.70;77.68
81005;BME280;70472;47.592;17.640;2023-06-22T00:26:16;100074.72;;;20.65;77.29
81005;BME280;70472;47.592;17.640;2023-06-22T00:26:49;100067.13;;;20.67;77.31
81005;BME280;70472;47.592;17.640;2023-06-22T00:27:21;100078.16;;;20.72;77.23
81005;BME280;70472;47.592;17.640;2023-06-22T00:27:54;100069.41;;;20.70;77.14
81005;BME280;70472;47.592;17.640;2023-06-22T00:28:26;100073.16;;;20.69;77.90
81005;BME280;70472;47.592;17.640;2023-06-22T00:28:58;100079.09;;;20.66;77.99
81005;BME280;70472;47.592;17.640;2023-06-22T00:29:31;100078.63;;;20.69;77.72
81005;BME280;70472;47.592;17.640;2023-06-22T00:30:04;100072.13;;;20.70;78.64
81005;BME280;70472;47.592;17.640;2023-06-22T00:30:36;100079.94;;;20.67;78.06
81005;BME280;70472;47.592;17.640;2023-06-22T00:31:08;100082.41;;;20.68;77.61
81005;BME280;70472;47.592;17.640;2023-06-22T00:31:41;100079.47;;;20.70;77.48
81005;BME280;70472;47.592;17.640;2023-06-22T00:32:13;100079.47;;;20.70;78.30
81005;BME280;70472;47.592;17.640;2023-06-22T00:32:46;100081.22;;;20.64;78.44
81005;BME280;70472;47.592;17.640;2023-06-22T00:33:19;100081.69;;;20.61;77.81
81005;BME280;70472;47.592;17.640;2023-06-22T00:33:51;100078.38;;;20.59;77.96
81005;BME280;70472;47.592;17.640;2023-06-22T00:34:23;100071.34;;;20.51;77.13
81005;BME280;70472;47.592;17.640;2023-06-22T00:34:57;100066.25;;;20.55;78.12
81005;BME280;70472;47.592;17.640;2023-06-22T00:35:29;100070.06;;;20.54;78.05
81005;BME280;70472;47.592;17.640;2023-06-22T00:36:01;100072.19;;;20.52;78.00
81005;BME280;70472;47.592;17.640;2023-06-22T00:36:35;100075.88;;;20.58;77.20
81005;BME280;70472;47.592;17.640;2023-06-22T00:37:08;100072.94;;;20.59;78.17
81005;BME280;70472;47.592;17.640;2023-06-22T00:37:40;100073.38;;;20.56;77.22
81005;BME280;70472;47.592;17.640;2023-06-22T00:38:13;100078.00;;;20.56;77.86
81005;BME280;70472;47.592;17.640;2023-06-22T00:38:47;100078.00;;;20.56;77.64
81005;BME280;70472;47.592;17.640;2023-06-22T00:39:19;100078.69;;;20.51;78.52
81005;BME280;70472;47.592;17.640;2023-06-22T00:39:51;100081.47;;;20.44;78.02
81005;BME280;70472;47.592;17.640;2023-06-22T00:40:24;100079.59;;;20.45;77.22
81005;BME280;70472;47.592;17.640;2023-06-22T00:40:56;100077.94;;;20.44;78.03
81005;BME280;70472;47.592;17.640;2023-06-22T00:41:29;100079.41;;;20.46;77.56
81005;BME280;70472;47.592;17.640;2023-06-22T00:42:02;100086.03;;;20.50;78.58
81005;BME280;70472;47.592;17.640;2023-06-22T00:42:35;100074.78;;;20.47;77.97
81005;BME280;70472;47.592;17.640;2023-06-22T00:43:07;100070.16;;;20.47;77.95
81005;BME280;70472;47.592;17.640;2023-06-22T00:43:40;100073.84;;;20.53;77.75
81005;BME280;70472;47.592;17.640;2023-06-22T00:44:12;100073.47;;;20.49;78.54
81005;BME280;70472;47.592;17.640;2023-06-22T00:44:44;100065.06;;;20.51;78.46
81005;BME280;70472;47.592;17.640;2023-06-22T00:45:17;100065.53;;;20.48;78.19
81005;BME280;70472;47.592;17.640;2023-06-22T00:45:49;100065.53;;;20.48;78.59
81005;BME280;70472;47.592;17.640;2023-06-22T00:46:23;100059.03;;;20.49;78.11
81005;BME280;70472;47.592;17.640;2023-06-22T00:46:56;100059.50;;;20.46;78.81
81005;BME280;70472;47.592;17.640;2023-06-22T00:47:30;100059.03;;;20.49;79.37
81005;BME280;70472;47.592;17.640;2023-06-22T00:48:03;100057.50;;;20.53;78.97
81005;BME280;70472;47.592;17.640;2023-06-22T00:48:35;100057.97;;;20.50;79.69
81005;BME280;70472;47.592;17.640;2023-06-22T00:49:08;100059.25;;;20.47;78.86
81005;BME280;70472;47.592;17.640;2023-06-22T00:49:41;100063.88;;;20.47;80.14
81005;BME280;70472;47.592;17.640;2023-06-22T00:50:20;100062.66;;;20.43;80.00
81005;BME280;70472;47.592;17.640;2023-06-22T00:50:53;100058.03;;;20.43;79.28
81005;BME280;70472;47.592;17.640;2023-06-22T00:51:26;100054.47;;;20.43;79.13
81005;BME280;70472;47.592;17.640;2023-06-22T00:51:58;100060.09;;;20.48;79.07
81005;BME280;70472;47.592;17.640;2023-06-22T00:52:32;100062.34;;;20.51;79.69
81005;BME280;70472;47.592;17.640;2023-06-22T00:53:08;100061.31;;;20.52;79.15
81005;BME280;70472;47.592;17.640;2023-06-22T00:53:41;100057.50;;;20.53;79.50
81005;BME280;70472;47.592;17.640;2023-06-22T00:54:15;100060.69;;;20.50;78.91
81005;BME280;70472;47.592;17.640;2023-06-22T00:54:51;100068.84;;;20.50;78.54
81005;BME280;70472;47.592;17.640;2023-06-22T00:55:25;100055.84;;;20.52;77.84
81005;BME280;70472;47.592;17.640;2023-06-22T00:55:58;100061.88;;;20.54;78.64
81005;BME280;70472;47.592;17.640;2023-06-22T00:56:32;100059.59;;;20.51;78.56
81005;BME280;70472;47.592;17.640;2023-06-22T00:57:06;100059.25;;;20.47;78.00
81005;BME280;70472;47.592;17.640;2023-06-22T00:57:39;100055.91;;;20.45;78.85
81005;BME280;70472;47.592;17.640;2023-06-22T00:58:13;100059.34;;;20.41;78.37
81005;BME280;70472;47.592;17.640;2023-06-22T00:58:47;100055.16;;;20.38;78.20
81005;BME280;70472;47.592;17.640;2023-06-22T00:59:21;100059.66;;;20.33;78.86
81005;BME280;70472;47.592;17.640;2023-06-22T00:59:54;100053.31;;;20.20;79.13
81005;BME280;70472;47.592;17.640;2023-06-22T01:00:26;100059.69;;;20.14;79.78
81005;BME280;70472;47.592;17.640;2023-06-22T01:00:59;100054.09;;;20.09;80.16
81005;BME280;70472;47.592;17.640;2023-06-22T01:01:32;100054.72;;;20.11;80.18
81005;BME280;70472;47.592;17.640;2023-06-22T01:02:05;100059.47;;;20.16;80.30
81005;BME280;70472;47.592;17.640;2023-06-22T01:02:37;100054.41;;;20.19;80.83
81005;BME280;70472;47.592;17.640;2023-06-22T01:03:09;100053.31;;;20.20;80.14
81005;BME280;70472;47.592;17.640;2023-06-22T01:03:42;100051.66;;;20.19;80.46
81005;BME280;70472;47.592;17.640;2023-06-22T01:04:15;100049.19;;;20.18;80.38
81005;BME280;70472;47.592;17.640;2023-06-22T01:04:47;100051.66;;;20.19;80.88
81005;BME280;70472;47.592;17.640;2023-06-22T01:05:23;100057.50;;;20.23;80.57
81005;BME280;70472;47.592;17.640;2023-06-22T01:06:07;100060.22;;;20.23;80.69
81005;BME280;70472;47.592;17.640;2023-06-22T01:08:21;100054.16;;;20.21;80.32
81005;BME280;70472;47.592;17.640;2023-06-22T01:09:15;100054.25;;;20.14;79.89
81005;BME280;70472;47.592;17.640;2023-06-22T01:11:09;100057.81;;;20.15;79.61
81005;BME280;70472;47.592;17.640;2023-06-22T01:11:47;100057.13;;;20.19;80.27
81005;BME280;70472;47.592;17.640;2023-06-22T01:12:23;100055.91;;;20.15;79.45
81005;BME280;70472;47.592;17.640;2023-06-22T01:14:25;100062.44;;;20.14;79.60
81005;BME280;70472;47.592;17.640;2023-06-22T01:15:08;100056.66;;;19.92;81.09
81005;BME280;70472;47.592;17.640;2023-06-22T01:16:03;100059.31;;;19.81;80.83
81005;BME280;70472;47.592;17.640;2023-06-22T01:16:41;100058.84;;;19.84;81.27
81005;BME280;70472;47.592;17.640;2023-06-22T01:17:18;100063.06;;;19.80;80.45
81005;BME280;70472;47.592;17.640;2023-06-22T01:17:53;100064.22;;;19.72;81.15
81005;BME280;70472;47.592;17.640;2023-06-22T01:18:30;100055.81;;;19.73;81.72
81005;BME280;70472;47.592;17.640;2023-06-22T01:19:44;100055.38;;;19.77;82.01
81005;BME280;70472;47.592;17.640;2023-06-22T01:20:17;100057.22;;;19.64;81.96
81005;BME280;70472;47.592;17.640;2023-06-22T01:20:56;100054.53;;;19.58;81.53
81005;BME280;70472;47.592;17.640;2023-06-22T01:21:31;100060.41;;;19.55;81.93
81005;BME280;70472;47.592;17.640;2023-06-22T01:22:07;100052.19;;;19.61;82.47
81005;BME280;70472;47.592;17.640;2023-06-22T01:24:28;100047.97;;;19.65;81.29
81005;BME280;70472;47.592;17.640;2023-06-22T01:25:16;100056.06;;;19.72;81.22
81005;BME280;70472;47.592;17.640;2023-06-22T01:26:22;100052.81;;;19.82;81.62
81005;BME280;70472;47.592;17.640;2023-06-22T01:27:26;100055.06;;;19.85;81.99
81005;BME280;70472;47.592;17.640;2023-06-22T01:28:46;100051.28;;;19.86;82.15
81005;BME280;70472;47.592;17.640;2023-06-22T01:29:20;100058.03;;;19.83;82.07
81005;BME280;70472;47.592;17.640;2023-06-22T01:29:57;100050.28;;;19.80;82.10
81005;BME280;70472;47.592;17.640;2023-06-22T01:30:32;100053.50;;;19.77;81.53
81005;BME280;70472;47.592;17.640;2023-06-22T01:31:05;100052.19;;;19.80;81.46
81005;BME280;70472;47.592;17.640;2023-06-22T01:31:42;100048.44;;;19.81;81.93
81005;BME280;70472;47.592;17.640;2023-06-22T01:32:18;100045.56;;;19.76;82.04
81005;BME280;70472;47.592;17.640;2023-06-22T01:32:51;100050.84;;;19.70;81.99
81005;BME280;70472;47.592;17.640;2023-06-22T01:33:25;100054.16;;;19.72;81.14
81005;BME280;70472;47.592;17.640;2023-06-22T01:34:02;100047.66;;;19.73;82.56
81005;BME280;70472;47.592;17.640;2023-06-22T01:34:37;100052.66;;;19.77;81.98
81005;BME280;70472;47.592;17.640;2023-06-22T01:35:12;100053.88;;;19.81;82.03
81005;BME280;70472;47.592;17.640;2023-06-22T01:35:45;100060.22;;;19.74;81.00
81005;BME280;70472;47.592;17.640;2023-06-22T01:36:18;100062.81;;;19.69;82.46
81005;BME280;70472;47.592;17.640;2023-06-22T01:36:52;100055.66;;;19.68;82.50
81005;BME280;70472;47.592;17.640;2023-06-22T01:37:27;100061.66;;;19.59;82.26
81005;BME280;70472;47.592;17.640;2023-06-22T01:38:00;100058.31;;;19.57;82.84
81005;BME280;70472;47.592;17.640;2023-06-22T01:38:33;100064.59;;;19.57;82.53
81005;BME280;70472;47.592;17.640;2023-06-22T01:39:06;100065.59;;;19.63;82.53
81005;BME280;70472;47.592;17.640;2023-06-22T01:39:39;100058.88;;;19.65;82.29
81005;BME280;70472;47.592;17.640;2023-06-22T01:40:14;100064.47;;;19.70;81.93
81005;BME280;70472;47.592;17.640;2023-06-22T01:40:49;100065.69;;;19.74;82.17
81005;BME280;70472;47.592;17.640;2023-06-22T01:41:27;100065.72;;;19.68;81.94
81005;BME280;70472;47.592;17.640;2023-06-22T01:42:03;100070.56;;;19.66;82.14
81005;BME280;70472;47.592;17.640;2023-06-22T01:42:37;100067.47;;;19.62;82.03
81005;BME280;70472;47.592;17.640;2023-06-22T01:43:12;100058.72;;;19.60;81.91
81005;BME280;70472;47.592;17.640;2023-06-22T01:43:45;100053.28;;;19.60;82.31
81005;BME280;70472;47.592;17.640;2023-06-22T01:44:18;100051.81;;;19.58;82.63
81005;BME280;70472;47.592;17.640;2023-06-22T01:44:53;100058.94;;;19.59;81.97
81005;BME280;70472;47.592;17.640;2023-06-22T01:45:27;100055.41;;;19.58;82.49
81005;BME280;70472;47.592;17.640;2023-06-22T01:46:01;100056.22;;;19.59;82.61
81005;BME280;70472;47.592;17.640;2023-06-22T01:46:38;100056.44;;;19.57;82.23
81005;BME280;70472;47.592;17.640;2023-06-22T01:47:12;100057.06;;;19.59;81.79
81005;BME280;70472;47.592;17.640;2023-06-22T01:47:44;100056.00;;;19.60;82.09
81005;BME280;70472;47.592;17.640;2023-06-22T01:48:18;100056.81;;;19.61;81.67
81005;BME280;70472;47.592;17.640;2023-06-22T01:48:51;100053.41;;;19.65;82.86
81005;BME280;70472;47.592;17.640;2023-06-22T01:49:25;100061.97;;;19.69;81.93
81005;BME280;70472;47.592;17.640;2023-06-22T01:49:57;100062.81;;;19.69;82.41
81005;BME280;70472;47.592;17.640;2023-06-22T01:50:30;100061.50;;;19.72;81.74
81005;BME280;70472;47.592;17.640;2023-06-22T01:51:03;100070.72;;;19.71;81.62
81005;BME280;70472;47.592;17.640;2023-06-22T01:51:35;100062.97;;;19.74;81.49
81005;BME280;70472;47.592;17.640;2023-06-22T01:52:08;100061.88;;;19.76;81.17
81005;BME280;70472;47.592;17.640;2023-06-22T01:52:41;100064.47;;;19.70;81.57
81005;BME280;70472;47.592;17.640;2023-06-22T01:53:13;100064.06;;;19.67;81.41
81005;BME280;70472;47.592;17.640;2023-06-22T01:53:45;100068.44;;;19.68;81.29
81005;BME280;70472;47.592;17.640;2023-06-22T01:54:18;100069.50;;;19.67;81.38
81005;BME280;70472;47.592;17.640;2023-06-22T01:54:51;100070.34;;;19.67;80.88
81005;BME280;70472;47.592;17.640;2023-06-22T01:55:23;100075.94;;;19.72;81.13
81005;BME280;70472;47.592;17.640;2023-06-22T01:55:56;100075.34;;;19.70;80.29
81005;BME280;70472;47.592;17.640;2023-06-22T01:56:29;100071.56;;;19.71;80.51
81005;BME280;70472;47.592;17.640;2023-06-22T01:57:03;100075.34;;;19.70;80.89
81005;BME280;70472;47.592;17.640;2023-06-22T01:57:35;100073.53;;;19.64;81.25
81005;BME280;70472;47.592;17.640;2023-06-22T01:58:08;100067.59;;;19.49;82.18
81005;BME280;70472;47.592;17.640;2023-06-22T01:58:52;100073.19;;;19.36;82.02
81005;BME280;70472;47.592;17.640;2023-06-22T02:00:30;100078.28;;;19.26;83.02
81005;BME280;70472;47.592;17.640;2023-06-22T02:01:11;100078.63;;;19.36;82.39
81005;BME280;70472;47.592;17.640;2023-06-22T02:01:52;100078.94;;;19.46;81.68
81005;BME280;70472;47.592;17.640;2023-06-22T02:02:39;100087.03;;;19.53;82.39
81005;BME280;70472;47.592;17.640;2023-06-22T02:03:19;100084.91;;;19.55;80.92
81005;BME280;70472;47.592;17.640;2023-06-22T02:04:13;100086.41;;;19.51;81.65
81005;BME280;70472;47.592;17.640;2023-06-22T02:05:06;100090.25;;;19.43;83.32
81005;BME280;70472;47.592;17.640;2023-06-22T02:05:49;100094.47;;;19.39;82.62
81005;BME280;70472;47.592;17.640;2023-06-22T02:06:29;100091.91;;;19.44;82.80
81005;BME280;70472;47.592;17.640;2023-06-22T02:07:09;100091.00;;;19.50;81.55
81005;BME280;70472;47.592;17.640;2023-06-22T02:08:23;100089.50;;;19.36;82.41
81005;BME280;70472;47.592;17.640;2023-06-22T02:09:01;100085.00;;;19.05;83.69
81005;BME280;70472;47.592;17.640;2023-06-22T02:09:35;100077.78;;;18.92;83.73
81005;BME280;70472;47.592;17.640;2023-06-22T02:10:10;100084.47;;;18.89;84.41
81005;BME280;70472;47.592;17.640;2023-06-22T02:10:46;100083.75;;;19.01;84.11
81005;BME280;70472;47.592;17.640;2023-06-22T02:11:20;100089.06;;;19.14;83.83
81005;BME280;70472;47.592;17.640;2023-06-22T02:11:56;100084.63;;;19.19;82.49
81005;BME280;70472;47.592;17.640;2023-06-22T02:12:31;100084.19;;;19.23;82.20
81005;BME280;70472;47.592;17.640;2023-06-22T02:13:07;100081.91;;;19.19;82.71
81005;BME280;70472;47.592;17.640;2023-06-22T02:13:41;100081.91;;;19.19;83.12
81005;BME280;70472;47.592;17.640;2023-06-22T02:14:14;100083.03;;;19.12;83.07
81005;BME280;70472;47.592;17.640;2023-06-22T02:14:48;100079.63;;;18.98;83.93
81005;BME280;70472;47.592;17.640;2023-06-22T02:15:21;100079.28;;;18.88;83.79
81005;BME280;70472;47.592;17.640;2023-06-22T02:15:58;100079.50;;;18.86;83.83
81005;BME280;70472;47.592;17.640;2023-06-22T02:16:32;100083.44;;;18.90;84.20
81005;BME280;70472;47.592;17.640;2023-06-22T02:17:04;100084.38;;;19.03;83.96
81005;BME280;70472;47.592;17.640;2023-06-22T02:17:38;100083.28;;;19.10;83.83
81005;BME280;70472;47.592;17.640;2023-06-22T02:18:11;100080.31;;;19.12;83.58
81005;BME280;70472;47.592;17.640;2023-06-22T02:18:49;100079.50;;;19.11;82.76
81005;BME280;70472;47.592;17.640;2023-06-22T02:19:24;100079.50;;;19.11;83.34
81005;BME280;70472;47.592;17.640;2023-06-22T02:19:57;100083.28;;;19.10;83.42
81005;BME280;70472;47.592;17.640;2023-06-22T02:20:30;100080.31;;;19.12;83.38
81005;BME280;70472;47.592;17.640;2023-06-22T02:21:03;100081.50;;;18.98;84.07
81005;BME280;70472;47.592;17.640;2023-06-22T02:21:35;100088.03;;;18.90;84.40
81005;BME280;70472;47.592;17.640;2023-06-22T02:22:07;100089.53;;;18.86;84.63
81005;BME280;70472;47.592;17.640;2023-06-22T02:22:41;100091.56;;;18.90;83.92
81005;BME280;70472;47.592;17.640;2023-06-22T02:23:15;100093.41;;;18.97;83.67
81005;BME280;70472;47.592;17.640;2023-06-22T02:23:48;100097.75;;;19.04;84.03
81005;BME280;70472;47.592;17.640;2023-06-22T02:24:20;100091.03;;;19.07;83.98
81005;BME280;70472;47.592;17.640;2023-06-22T02:24:52;100095.63;;;19.06;84.07
81005;BME280;70472;47.592;17.640;2023-06-22T02:25:25;100091.53;;;18.97;83.49
81005;BME280;70472;47.592;17.640;2023-06-22T02:25:58;100088.50;;;18.87;83.92
81005;BME280;70472;47.592;17.640;2023-06-22T02:26:31;100093.41;;;18.72;84.33
81005;BME280;70472;47.592;17.640;2023-06-22T02:27:06;100085.50;;;18.63;84.31
81005;BME280;70472;47.592;17.640;2023-06-22T02:27:39;100084.25;;;18.59;85.01
81005;BME280;70472;47.592;17.640;2023-06-22T02:28:11;100086.16;;;18.59;85.38
81005;BME280;70472;47.592;17.640;2023-06-22T02:28:44;100090.47;;;18.66;85.00
81005;BME280;70472;47.592;17.640;2023-06-22T02:29:17;100088.38;;;18.75;85.57
81005;BME280;70472;47.592;17.640;2023-06-22T02:29:49;100093.53;;;18.83;85.17
81005;BME280;70472;47.592;17.640;2023-06-22T02:30:21;100093.47;;;18.90;84.58
81005;BME280;70472;47.592;17.640;2023-06-22T02:30:54;100090.91;;;18.95;84.58
81005;BME280;70472;47.592;17.640;2023-06-22T02:31:26;100087.13;;;18.96;83.71
81005;BME280;70472;47.592;17.640;2023-06-22T02:31:58;100093.41;;;18.97;84.21
81005;BME280;70472;47.592;17.640;2023-06-22T02:32:31;100092.75;;;19.01;84.04
81005;BME280;70472;47.592;17.640;2023-06-22T02:33:03;100096.06;;;19.03;83.93
81005;BME280;70472;47.592;17.640;2023-06-22T02:33:35;100085.19;;;19.03;83.76
81005;BME280;70472;47.592;17.640;2023-06-22T02:34:08;100092.69;;;19.08;84.30
81005;BME280;70472;47.592;17.640;2023-06-22T02:34:40;100091.25;;;19.05;83.58
81005;BME280;70472;47.592;17.640;2023-06-22T02:35:13;100088.81;;;18.97;83.31
81005;BME280;70472;47.592;17.640;2023-06-22T02:35:45;100084.88;;;18.93;83.70
81005;BME280;70472;47.592;17.640;2023-06-22T02:36:18;100085.25;;;18.97;84.44
81005;BME280;70472;47.592;17.640;2023-06-22T02:36:51;100084.00;;;18.99;83.30
81005;BME280;70472;47.592;17.640;2023-06-22T02:37:24;100080.22;;;19.00;84.36
81005;BME280;70472;47.592;17.640;2023-06-22T02:37:56;100082.94;;;19.00;83.68
81005;BME280;70472;47.592;17.640;2023-06-22T02:38:30;100075.22;;;18.97;84.27
81005;BME280;70472;47.592;17.640;2023-06-22T02:39:03;100075.31;;;18.84;83.82
81005;BME280;70472;47.592;17.640;2023-06-22T02:39:35;100076.22;;;18.78;84.62
81005;BME280;70472;47.592;17.640;2023-06-22T02:40:08;100074.97;;;18.80;84.84
81005;BME280;70472;47.592;17.640;2023-06-22T02:40:41;100075.72;;;18.87;84.99
81005;BME280;70472;47.592;17.640;2023-06-22T02:41:17;100076.97;;;18.91;83.45
81005;BME280;70472;47.592;17.640;2023-06-22T02:41:54;100071.88;;;18.95;83.59
81005;BME280;70472;47.592;17.640;2023-06-22T02:42:27;100073.13;;;18.99;83.27
81005;BME280;70472;47.592;17.640;2023-06-22T02:42:59;100073.72;;;19.01;82.63
81005;BME280;70472;47.592;17.640;2023-06-22T02:43:31;100080.03;;;18.95;82.94
81005;BME280;70472;47.592;17.640;2023-06-22T02:44:04;100072.34;;;18.92;83.21
81005;BME280;70472;47.592;17.640;2023-06-22T02:44:37;100072.28;;;18.99;83.03
81005;BME280;70472;47.592;17.640;2023-06-22T02:45:10;100078.09;;;19.02;82.39
81005;BME280;70472;47.592;17.640;2023-06-22T02:45:42;100082.69;;;19.02;82.50
81005;BME280;70472;47.592;17.640;2023-06-22T02:46:16;100079.63;;;18.98;83.26
81005;BME280;70472;47.592;17.640;2023-06-22T02:46:49;100082.41;;;18.91;82.98
81005;BME280;70472;47.592;17.640;2023-06-22T02:47:21;100081.53;;;18.91;83.93
81005;BME280;70472;47.592;17.640;2023-06-22T02:47:55;100075.66;;;18.94;83.20
81005;BME280;70472;47.592;17.640;2023-06-22T02:48:28;100077.72;;;18.99;83.63
81005;BME280;70472;47.592;17.640;2023-06-22T02:49:00;100080.81;;;19.02;83.77
81005;BME280;70472;47.592;17.640;2023-06-22T02:49:33;100079.97;;;19.02;83.19
81005;BME280;70472;47.592;17.640;2023-06-22T02:50:06;100078.63;;;18.92;82.98
81005;BME280;70472;47.592;17.640;2023-06-22T02:50:39;100079.09;;;18.83;82.89
81005;BME280;70472;47.592;17.640;2023-06-22T02:51:12;100077.88;;;18.79;83.95
81005;BME280;70472;47.592;17.640;2023-06-22T02:51:48;100065.34;;;18.78;84.49
81005;BME280;70472;47.592;17.640;2023-06-22T02:52:24;100077.81;;;18.85;84.10
81005;BME280;70472;47.592;17.640;2023-06-22T02:52:56;100084.47;;;18.89;83.22
81005;BME280;70472;47.592;17.640;2023-06-22T02:53:28;100075.91;;;18.92;84.08
81005;BME280;70472;47.592;17.640;2023-06-22T02:54:01;100073.56;;;18.96;83.58
81005;BME280;70472;47.592;17.640;2023-06-22T02:54:34;100068.50;;;19.00;83.70
81005;BME280;70472;47.592;17.640;2023-06-22T02:55:06;100071.81;;;19.02;83.36
81005;BME280;70472;47.592;17.640;2023-06-22T02:55:39;100069.16;;;18.95;82.85
81005;BME280;70472;47.592;17.640;2023-06-22T02:56:12;100066.28;;;18.90;83.25
81005;BME280;70472;47.592;17.640;2023-06-22T02:56:44;100070.53;;;18.86;83.99
81005;BME280;70472;47.592;17.640;2023-06-22T02:57:17;100068.84;;;18.85;83.55
81005;BME280;70472;47.592;17.640;2023-06-22T02:57:49;100065.69;;;18.88;83.94
81005;BME280;70472;47.592;17.640;2023-06-22T02:58:21;100068.16;;;18.89;82.96
81005;BME280;70472;47.592;17.640;2023-06-22T02:58:54;100065.22;;;18.91;82.58
81005;BME280;70472;47.592;17.640;2023-06-22T02:59:26;100067.50;;;18.94;82.74
81005;BME280;70472;47.592;17.640;2023-06-22T03:00:06;100063.97;;;18.93;82.64
81005;BME280;70472;47.592;17.640;2023-06-22T03:00:39;100061.91;;;18.89;83.20
81005;BME280;70472;47.592;17.640;2023-06-22T03:01:11;100066.44;;;18.95;82.86
81005;BME280;70472;47.592;17.640;2023-06-22T03:01:45;100066.44;;;18.95;82.49
81005;BME280;70472;47.592;17.640;2023-06-22T03:02:30;100065.63;;;18.94;82.62
81005;BME280;70472;47.592;17.640;2023-06-22T03:03:03;100057.25;;;18.96;83.13
81005;BME280;70472;47.592;17.640;2023-06-22T03:03:35;100059.53;;;18.99;82.56
81005;BME280;70472;47.592;17.640;2023-06-22T03:04:09;100061.19;;;19.00;82.84
81005;BME280;70472;47.592;17.640;2023-06-22T03:04:41;100063.44;;;19.03;83.67
81005;BME280;70472;47.592;17.640;2023-06-22T03:05:15;100073.13;;;18.99;83.05
81005;BME280;70472;47.592;17.640;2023-06-22T03:05:47;100065.19;;;18.98;82.63